Time;durP1;ratioP1;P1;durP2;ratioP2;P2;SDS_P1;SDS_P2;PMS_P1;PMS_P2;Temp;Humidity;BMP_temperature;BMP_pressure;BME280_temperature;BME280_humidity;BME280_pressure;Samples;Min_cycle;Max_cycle;Signal;HPM_P1;HPM_P2
2022/08/13 00:00:04;;;;;;;6.68;5.50;;;;;;;23.26;52.74;94402.28;4160980;28;20061;-69
2022/08/13 00:02:16;;;;;;;6.90;5.53;;;;;;;23.28;53.00;94403.66;4160271;28;20056;-69
2022/08/13 00:04:24;;;;;;;9.38;5.90;;;;;;;23.27;53.44;94390.53;4160645;28;20133;-68
2022/08/13 00:08:56;;;;;;;6.28;5.47;;;;;;;23.25;53.53;94396.13;4169273;28;20049;-71
2022/08/13 00:11:00;;;;;;;7.78;5.43;;;;;;;23.25;53.47;94393.47;4153207;28;20145;-69
2022/08/13 00:13:04;;;;;;;7.68;5.88;;;;;;;23.27;53.78;94399.38;4168056;28;20053;-67
2022/08/13 00:15:11;;;;;;;8.52;5.78;;;;;;;23.27;53.56;94396.69;4175616;28;20132;-69
2022/08/13 00:17:17;;;;;;;9.15;5.93;;;;;;;23.26;53.57;94397.72;4164626;28;20135;-69
2022/08/13 00:19:30;;;;;;;6.68;5.78;;;;;;;23.27;53.44;94386.00;4165438;28;20134;-69
2022/08/13 00:21:32;;;;;;;7.20;5.97;;;;;;;23.28;53.38;94384.13;4168003;28;20045;-67
2022/08/13 00:23:57;;;;;;;10.13;6.40;;;;;;;23.29;53.44;94383.88;4156733;28;20045;-67
2022/08/13 00:26:01;;;;;;;9.55;5.80;;;;;;;23.29;53.79;94383.88;4174037;28;20433;-66
2022/08/13 00:28:04;;;;;;;7.20;5.80;;;;;;;23.29;53.24;94372.38;4168109;28;20063;-68
2022/08/13 00:30:08;;;;;;;7.03;5.32;;;;;;;23.30;53.26;94374.00;4151131;28;20041;-67
2022/08/13 00:32:13;;;;;;;7.03;5.63;;;;;;;23.34;53.40;94379.66;4174962;28;20568;-68
2022/08/13 00:34:18;;;;;;;10.60;5.57;;;;;;;23.35;53.68;94375.94;4168722;28;20053;-67
2022/08/13 00:36:21;;;;;;;7.82;6.13;;;;;;;23.36;53.42;94381.03;4174244;28;20119;-66
2022/08/13 00:38:38;;;;;;;9.30;5.63;;;;;;;23.31;53.26;94384.44;4165423;28;20045;-68
2022/08/13 00:40:45;;;;;;;7.40;5.28;;;;;;;23.28;53.06;94381.47;4168242;28;20349;-69
2022/08/13 00:43:03;;;;;;;8.48;5.25;;;;;;;23.27;53.57;94378.00;4169897;28;20111;-68
2022/08/13 00:45:07;;;;;;;8.68;5.30;;;;;;;23.30;53.43;94377.47;4169263;28;20449;-68
2022/08/13 00:49:36;;;;;;;8.13;6.10;;;;;;;23.31;53.16;94375.63;4177489;28;20183;-69
2022/08/13 00:51:51;;;;;;;7.43;5.70;;;;;;;23.29;53.53;94373.19;4177393;28;20444;-68
2022/08/13 00:54:03;;;;;;;6.53;5.70;;;;;;;23.31;53.12;94378.28;4178192;28;20045;-69
2022/08/13 00:56:12;;;;;;;7.97;5.60;;;;;;;23.31;52.95;94368.41;4168519;28;20050;-67
2022/08/13 00:58:19;;;;;;;6.63;5.90;;;;;;;23.29;53.00;94375.84;4161922;28;20088;-68
2022/08/13 01:00:23;;;;;;;7.70;6.10;;;;;;;23.26;53.21;94368.34;4177699;28;20045;-68
2022/08/13 01:02:26;;;;;;;7.55;6.25;;;;;;;23.19;53.01;94367.72;4172324;28;20080;-69
2022/08/13 01:04:48;;;;;;;8.50;6.65;;;;;;;23.19;53.05;94372.22;4172952;28;20048;-69
2022/08/13 01:06:52;;;;;;;8.93;5.88;;;;;;;23.18;53.26;94374.09;4161568;28;20404;-68
2022/08/13 01:08:54;;;;;;;8.77;5.97;;;;;;;23.15;53.68;94371.13;4151375;28;20444;-68
2022/08/13 01:11:05;;;;;;;7.13;6.10;;;;;;;23.10;53.85;94371.84;4176113;28;20080;-68
2022/08/13 01:13:18;;;;;;;9.80;6.40;;;;;;;23.07;53.68;94359.78;4178022;28;20381;-69
2022/08/13 01:15:23;;;;;;;6.50;5.80;;;;;;;23.09;54.03;94367.56;4159425;28;20102;-69
2022/08/13 01:17:46;;;;;;;8.20;6.13;;;;;;;23.10;54.26;94367.31;4161482;28;20053;-67
2022/08/13 01:19:51;;;;;;;7.53;5.53;;;;;;;23.12;54.11;94369.72;4150621;28;20053;-68
2022/08/13 01:22:00;;;;;;;6.78;6.07;;;;;;;23.14;53.76;94364.16;4152141;28;20095;-68
2022/08/13 01:24:03;;;;;;;8.48;6.07;;;;;;;23.16;53.72;94370.84;4173698;28;20437;-67
2022/08/13 01:26:05;;;;;;;6.90;5.72;;;;;;;23.15;53.34;94366.59;4166361;28;20132;-69
2022/08/13 01:28:12;;;;;;;9.07;6.18;;;;;;;23.15;53.63;94371.94;4175294;28;20056;-67
2022/08/13 01:30:19;;;;;;;7.15;5.95;;;;;;;23.15;53.79;94368.47;4171849;28;20052;-69
2022/08/13 01:32:22;;;;;;;6.90;5.47;;;;;;;23.12;54.02;94364.38;4167196;28;20653;-68
2022/08/13 01:34:25;;;;;;;9.57;6.10;;;;;;;23.10;53.85;94369.16;4167532;28;20123;-69
2022/08/13 01:36:27;;;;;;;;;;;;;;;23.13;53.81;94368.69;4148029;28;20549;-69
2022/08/13 01:38:49;;;;;;;10.93;6.15;;;;;;;23.10;53.74;94369.16;4162000;28;19929;-68
2022/08/13 01:40:52;;;;;;;10.82;5.53;;;;;;;23.10;53.91;94369.16;4163460;28;20053;-67
2022/08/13 01:42:55;;;;;;;7.03;5.30;;;;;;;23.08;53.78;94363.25;4174524;28;20068;-69
2022/08/13 01:44:57;;;;;;;6.93;5.60;;;;;;;23.04;53.98;94357.63;4167080;28;20072;-68
2022/08/13 01:51:47;;;;;;;6.15;5.55;;;;;;;23.10;53.54;94353.97;4176528;28;20053;-67
2022/08/13 01:54:00;;;;;;;7.63;5.47;;;;;;;23.07;53.66;94356.31;4175597;28;20136;-68
2022/08/13 01:56:02;;;;;;;6.38;5.38;;;;;;;23.05;53.17;94350.41;4158248;28;20137;-68
2022/08/13 01:58:25;;;;;;;6.72;5.50;;;;;;;23.01;53.55;94350.06;4177400;28;20065;-69
2022/08/13 02:00:30;;;;;;;8.00;5.78;;;;;;;23.01;53.82;94349.28;4174008;28;20057;-69
2022/08/13 02:02:36;;;;;;;7.03;5.15;;;;;;;23.02;53.25;94343.69;4140176;28;20065;-69
2022/08/13 02:04:49;;;;;;;5.60;4.72;;;;;;;23.03;53.22;94347.16;4159946;28;20049;-69
2022/08/13 02:07:02;;;;;;;8.95;5.43;;;;;;;23.01;53.29;94343.94;4149229;28;20049;-68
2022/08/13 02:09:07;;;;;;;5.82;4.72;;;;;;;23.01;52.92;94344.72;4154023;28;20412;-70
2022/08/13 02:11:32;;;;;;;7.18;5.68;;;;;;;23.01;53.22;94339.38;4159851;28;20110;-69
2022/08/13 02:13:48;;;;;;;6.47;5.47;;;;;;;22.98;53.44;94344.41;4160804;28;20045;-68
2022/08/13 02:15:52;;;;;;;7.28;5.32;;;;;;;22.97;53.39;94340.09;4160884;28;20053;-69
2022/08/13 02:17:55;;;;;;;9.70;6.00;;;;;;;22.97;53.64;94337.41;4168664;28;20423;-67
2022/08/13 02:20:04;;;;;;;7.60;5.53;;;;;;;22.97;53.37;94338.22;4158671;28;20657;-69
2022/08/13 02:22:11;;;;;;;7.22;5.45;;;;;;;23.01;53.40;94343.94;4162914;28;20660;-69
2022/08/13 02:24:14;;;;;;;7.80;5.60;;;;;;;22.98;53.36;94339.84;4158352;28;20231;-69
2022/08/13 02:26:18;;;;;;;5.78;5.18;;;;;;;22.94;53.33;94340.59;4153759;28;20083;-70
2022/08/13 02:28:32;;;;;;;9.98;5.65;;;;;;;22.90;53.78;94342.94;4175860;28;20064;-69
2022/08/13 02:30:35;;;;;;;7.05;5.45;;;;;;;22.80;53.46;94342.78;4176226;28;20049;-68
2022/08/13 02:32:40;;;;;;;8.77;5.88;;;;;;;22.70;53.73;94343.44;4175925;28;20134;-69
2022/08/13 02:34:44;;;;;;;6.38;5.60;;;;;;;22.67;53.88;94347.41;4173514;28;20052;-69
2022/08/13 02:36:47;;;;;;;8.48;5.78;;;;;;;22.68;54.07;94351.69;4157680;28;20108;-68
2022/08/13 02:39:09;;;;;;;5.90;5.18;;;;;;;22.72;54.28;94346.69;4176551;28;20053;-69
2022/08/13 02:43:32;;;;;;;7.30;5.75;;;;;;;22.73;53.98;94348.28;4173435;28;20060;-70
2022/08/13 02:45:46;;;;;;;5.97;5.20;;;;;;;22.77;53.99;94346.75;4159811;28;20057;-68
2022/08/13 02:47:51;;;;;;;7.43;5.97;;;;;;;22.78;54.08;94340.38;4164218;28;20106;-67
2022/08/13 02:49:54;;;;;;;6.85;5.53;;;;;;;22.78;54.28;94340.38;4169075;28;20461;-68
2022/08/13 02:51:59;;;;;;;8.25;5.40;;;;;;;22.76;54.57;94347.81;4175394;28;20102;-67
2022/08/13 02:54:11;;;;;;;5.65;5.10;;;;;;;22.76;54.53;94345.16;4160063;28;20460;-69
2022/08/13 02:56:13;;;;;;;6.07;5.40;;;;;;;22.80;54.65;94340.94;4173713;28;20076;-67
2022/08/13 02:58:18;;;;;;;5.78;5.03;;;;;;;22.80;54.69;94342.78;4175614;28;20059;-70
2022/08/13 03:00:21;;;;;;;6.57;5.38;;;;;;;22.83;54.28;94347.66;4175173;28;20120;-69
2022/08/13 03:02:34;;;;;;;6.10;5.40;;;;;;;22.86;54.09;94342.59;4175785;28;20068;-68
2022/08/13 03:04:44;;;;;;;6.05;5.45;;;;;;;22.87;54.23;94336.22;4130348;28;20129;-67
2022/08/13 03:06:46;;;;;;;6.63;5.10;;;;;;;22.89;54.03;94333.31;4174818;28;20131;-69
2022/08/13 03:08:53;;;;;;;6.18;5.25;;;;;;;22.86;53.62;94337.25;4175738;28;20494;-70
2022/08/13 03:10:56;;;;;;;9.35;5.78;;;;;;;22.91;53.64;94339.22;4175489;28;20075;-68
2022/08/13 03:13:03;;;;;;;8.70;5.55;;;;;;;22.88;54.04;94345.84;4140774;28;20046;-69
2022/08/13 03:15:05;;;;;;;6.50;5.63;;;;;;;22.87;54.22;94346.91;4157892;28;20492;-69
2022/08/13 03:17:07;;;;;;;8.75;6.00;;;;;;;22.85;53.89;94348.22;4157919;28;20378;-69
2022/08/13 03:19:24;;;;;;;6.32;5.47;;;;;;;22.83;53.87;94339.63;4175730;28;20091;-68
2022/08/13 03:21:32;;;;;;;7.75;5.82;;;;;;;22.84;54.46;94352.75;4163061;28;20095;-69
2022/08/13 03:23:46;;;;;;;7.85;5.63;;;;;;;22.79;53.85;94352.66;4175742;28;20063;-68
2022/08/13 03:25:50;;;;;;;10.85;6.15;;;;;;;22.66;54.66;94350.31;4174367;28;20051;-69
2022/08/13 03:27:54;;;;;;;8.35;5.90;;;;;;;22.12;55.43;94352.56;4162816;28;20072;-68
2022/08/13 03:29:58;;;;;;;7.90;5.78;;;;;;;21.43;57.08;94353.38;4175697;28;20159;-67
2022/08/13 03:32:11;;;;;;;8.48;6.05;;;;;;;20.83;58.80;94357.09;4175690;28;20072;-68
2022/08/13 03:34:17;;;;;;;6.47;5.25;;;;;;;20.51;59.64;94364.53;4162265;28;20476;-69
2022/08/13 03:36:22;;;;;;;8.20;6.00;;;;;;;20.53;59.85;94351.81;4175522;28;20052;-69
2022/08/13 03:38:24;;;;;;;8.80;6.15;;;;;;;20.56;59.69;94359.34;4174908;28;20061;-69
2022/08/13 03:41:00;;;;;;;8.15;5.93;;;;;;;20.73;59.02;94357.66;4174183;28;20084;-68
2022/08/13 03:42:52;;;;;;;7.68;5.93;;;;;;;20.86;58.79;94362.78;4159333;28;20440;-68
2022/08/13 03:44:55;;;;;;;;;;;;;;;21.02;58.60;94360.44;4159308;28;20156;-67
2022/08/13 03:46:58;;;;;;;7.35;5.85;;;;;;;21.14;58.34;94361.22;4162483;28;19928;-70
2022/08/13 03:49:00;;;;;;;6.07;5.47;;;;;;;21.19;57.96;94365.88;4174091;28;20592;-69
2022/08/13 03:51:02;;;;;;;9.52;6.35;;;;;;;21.12;58.23;94360.66;4173436;28;20404;-67
2022/08/13 03:53:05;;;;;;;7.40;6.15;;;;;;;20.93;58.84;94362.66;4173015;28;20074;-68
2022/08/13 03:55:12;;;;;;;7.10;6.18;;;;;;;20.91;58.77;94370.06;4174334;28;20055;-69
2022/08/13 03:57:17;;;;;;;7.03;5.28;;;;;;;21.07;58.75;94369.34;4174589;28;20049;-68
2022/08/13 03:59:27;;;;;;;9.48;5.75;;;;;;;21.22;58.15;94363.56;4174287;28;20049;-69
2022/08/13 04:01:53;;;;;;;7.47;5.95;;;;;;;21.42;57.57;94360.56;4174607;28;20087;-69
2022/08/13 04:03:58;;;;;;;7.40;5.85;;;;;;;21.56;56.94;94361.09;4175226;28;20049;-68
2022/08/13 04:06:07;;;;;;;8.65;5.93;;;;;;;21.45;56.54;94364.59;4158123;28;20123;-67
2022/08/13 04:08:10;;;;;;;7.13;5.50;;;;;;;21.21;57.24;94364.59;4173813;28;20502;-68
2022/08/13 04:10:15;;;;;;;9.68;6.28;;;;;;;20.62;58.76;94363.78;4157846;28;20049;-68
2022/08/13 04:12:22;;;;;;;8.15;6.13;;;;;;;20.51;59.37;94359.22;4167411;28;20199;-68
2022/08/13 04:14:25;;;;;;;8.45;5.97;;;;;;;20.58;59.07;94363.41;4145714;28;20638;-67
2022/08/13 04:16:41;;;;;;;8.85;5.78;;;;;;;20.49;59.32;94363.97;4158956;28;20077;-67
2022/08/13 04:18:48;;;;;;;7.78;6.45;;;;;;;20.44;59.54;94365.44;4159361;28;20053;-69
2022/08/13 04:20:54;;;;;;;7.22;6.00;;;;;;;20.53;59.21;94365.94;4159238;28;20060;-68
2022/08/13 04:22:59;;;;;;;13.75;6.03;;;;;;;20.64;58.78;94365.16;4158958;28;20058;-68
2022/08/13 04:25:04;;;;;;;7.38;6.22;;;;;;;20.38;59.44;94366.34;4161263;28;20117;-66
2022/08/13 04:27:26;;;;;;;7.38;6.28;;;;;;;20.40;59.54;94369.59;4162441;28;20120;-67
2022/08/13 04:29:32;;;;;;;7.68;6.22;;;;;;;20.45;59.58;94363.59;4166286;28;20633;-68
2022/08/13 04:31:50;;;;;;;7.82;6.28;;;;;;;20.55;59.27;94361.19;4168849;28;20085;-69
2022/08/13 04:33:57;;;;;;;9.05;6.07;;;;;;;20.68;59.04;94368.19;4175650;28;20554;-68
2022/08/13 04:36:18;;;;;;;7.68;6.13;;;;;;;20.78;58.79;94359.59;4162641;28;20057;-68
2022/08/13 04:38:20;;;;;;;12.35;6.60;;;;;;;20.88;58.57;94356.38;4161336;28;20059;-69
2022/08/13 04:40:23;;;;;;;7.25;6.25;;;;;;;20.84;58.42;94364.00;4162286;28;20053;-69
2022/08/13 04:42:48;;;;;;;7.30;6.10;;;;;;;20.79;58.57;94359.38;4177683;28;20067;-69
2022/08/13 04:44:51;;;;;;;7.50;6.53;;;;;;;20.58;59.14;94358.09;4160364;28;20057;-69
2022/08/13 04:46:55;;;;;;;8.40;6.45;;;;;;;20.47;59.62;94356.19;4159683;28;20100;-68
2022/08/13 04:48:56;;;;;;;11.70;6.82;;;;;;;20.35;60.04;94360.66;4170931;28;20057;-67
2022/08/13 04:50:59;;;;;;;8.32;6.43;;;;;;;20.31;60.57;94360.34;4172089;28;20389;-68
2022/08/13 04:53:03;;;;;;;7.60;6.88;;;;;;;20.40;60.23;94356.31;4175910;28;20132;-69
2022/08/13 04:55:12;;;;;;;7.85;6.78;;;;;;;20.49;60.22;94364.75;4143486;28;20065;-68
2022/08/13 04:57:16;;;;;;;8.18;7.05;;;;;;;20.56;59.93;94354.00;4171420;28;20451;-69
2022/08/13 04:59:20;;;;;;;10.38;7.28;;;;;;;20.59;60.06;94357.06;4165600;28;20077;-69
2022/08/13 05:01:23;;;;;;;9.25;6.47;;;;;;;20.54;60.07;94356.09;4164969;28;20057;-68
2022/08/13 05:03:45;;;;;;;9.43;6.63;;;;;;;20.32;61.02;94366.47;4177842;28;20110;-69
2022/08/13 05:05:56;;;;;;;9.32;6.80;;;;;;;20.18;61.74;94368.50;4177264;28;20455;-69
2022/08/13 05:07:58;;;;;;;8.50;7.15;;;;;;;20.11;61.86;94363.28;4177181;28;20380;-69
2022/08/13 05:10:01;;;;;;;9.75;7.20;;;;;;;20.14;61.92;94359.38;4175532;28;20132;-69
2022/08/13 05:12:04;;;;;;;8.23;6.95;;;;;;;20.16;62.09;94362.59;4172620;28;20121;-68
2022/08/13 05:14:06;;;;;;;;;;;;;;;20.27;61.83;94369.00;4162436;28;20041;-68
2022/08/13 05:16:15;;;;;;;9.38;6.95;;;;;;;20.44;61.63;94354.81;4162825;28;20383;-68
2022/08/13 05:18:18;;;;;;;10.80;7.20;;;;;;;20.72;60.78;94360.56;4161740;28;20516;-67
2022/08/13 05:20:31;;;;;;;8.25;6.78;;;;;;;20.99;59.88;94367.06;4170594;28;20567;-67
2022/08/13 05:22:36;;;;;;;10.68;6.93;;;;;;;21.19;59.10;94361.38;4163969;28;20046;-70
2022/08/13 05:24:40;;;;;;;9.95;7.20;;;;;;;21.38;58.77;94370.03;4162316;28;20444;-69
2022/08/13 05:27:03;;;;;;;8.25;7.32;;;;;;;21.58;58.09;94364.34;4161749;28;20045;-68
2022/08/13 05:29:10;;;;;;;10.05;6.35;;;;;;;21.73;57.63;94360.38;4162361;28;20662;-68
2022/08/13 05:31:11;;;;;;;11.82;7.57;;;;;;;21.25;58.42;94365.75;4162663;28;20041;-68
2022/08/13 05:33:17;;;;;;;8.23;6.60;;;;;;;20.94;59.32;94363.47;4162437;28;20049;-70
2022/08/13 05:35:27;;;;;;;8.68;5.97;;;;;;;20.86;59.67;94356.63;4161383;28;20056;-69
2022/08/13 05:37:49;;;;;;;11.52;6.43;;;;;;;20.82;60.08;94364.28;4161573;28;20471;-69
2022/08/13 05:40:11;;;;;;;8.75;6.90;;;;;;;21.01;60.02;94364.13;4172471;28;20055;-68
2022/08/13 05:42:38;;;;;;;15.73;6.80;;;;;;;20.98;59.58;94369.94;4174158;28;20088;-68
2022/08/13 05:44:47;;;;;;;8.20;6.90;;;;;;;21.05;59.91;94371.44;4173238;28;20053;-68
2022/08/13 05:46:50;;;;;;;6.75;5.88;;;;;;;21.21;59.56;94372.59;4163717;28;20072;-68
2022/08/13 05:48:58;;;;;;;8.38;6.82;;;;;;;21.37;58.91;94368.41;4171197;28;20069;-72
2022/08/13 05:51:03;;;;;;;9.57;6.57;;;;;;;21.56;58.45;94368.28;4153580;28;20046;-68
2022/08/13 05:53:08;;;;;;;8.85;7.13;;;;;;;21.70;57.96;94369.63;4166698;28;20061;-68
2022/08/13 05:55:13;;;;;;;11.48;7.80;;;;;;;21.34;59.15;94376.03;4165689;28;20474;-67
2022/08/13 05:57:35;;;;;;;11.48;6.63;;;;;;;20.99;60.08;94367.06;4150931;28;20132;-68
2022/08/13 06:04:36;;;;;;;8.07;7.15;;;;;;;20.52;61.49;94364.31;4177229;28;20057;-68
2022/08/13 06:06:42;;;;;;;10.70;7.18;;;;;;;20.75;61.22;94371.53;4176604;28;20065;-69
2022/08/13 06:08:47;;;;;;;9.23;7.38;;;;;;;21.04;60.41;94367.16;4171056;28;20128;-67
2022/08/13 06:10:49;;;;;;;9.93;7.82;;;;;;;21.19;59.82;94369.34;4167251;28;20080;-69
2022/08/13 06:12:52;;;;;;;15.57;8.07;;;;;;;21.36;59.70;94371.28;4161019;28;20050;-67
2022/08/13 06:14:59;;;;;;;8.50;7.47;;;;;;;21.17;59.79;94371.44;4173662;28;20172;-68
2022/08/13 06:17:09;;;;;;;10.43;7.60;;;;;;;21.04;59.96;94371.69;4161501;28;20480;-69
2022/08/13 06:19:17;;;;;;;8.93;6.18;;;;;;;20.92;59.86;94371.66;4144314;28;20592;-69
2022/08/13 06:21:19;;;;;;;8.30;5.90;;;;;;;20.94;59.79;94368.78;4158937;28;20061;-69
2022/08/13 06:23:42;;;;;;;7.75;6.25;;;;;;;21.07;60.02;94369.34;4176283;28;20143;-68
2022/08/13 06:25:44;;;;;;;9.57;7.28;;;;;;;21.27;59.17;94371.66;4176081;28;20056;-70
2022/08/13 06:28:00;;;;;;;12.82;7.78;;;;;;;21.50;58.81;94375.38;4176431;28;20111;-67
2022/08/13 06:30:04;;;;;;;21.73;18.92;;;;;;;21.72;58.28;94374.72;4158920;28;20071;-70
2022/08/13 06:32:08;;;;;;;10.43;8.10;;;;;;;21.84;57.76;94372.84;4185691;28;20146;-68
2022/08/13 06:34:34;;;;;;;11.57;7.40;;;;;;;22.02;57.34;94369.19;4175110;28;20113;-68
2022/08/13 06:36:37;;;;;;;9.15;7.32;;;;;;;22.13;57.06;94370.19;4175742;28;20053;-71
2022/08/13 06:39:04;;;;;;;9.00;7.57;;;;;;;22.28;56.57;94370.47;4174859;28;20067;-69
2022/08/13 06:41:16;;;;;;;11.45;8.45;;;;;;;22.42;56.03;94365.66;4166134;28;20052;-68
2022/08/13 06:43:20;;;;;;;7.90;7.10;;;;;;;22.48;56.02;94364.72;4166952;28;20665;-69
2022/08/13 06:45:23;;;;;;;9.23;7.85;;;;;;;22.60;55.83;94369.97;4167716;28;20049;-69
2022/08/13 06:47:29;;;;;;;12.68;7.95;;;;;;;22.60;55.57;94364.63;4167589;28;20053;-69
2022/08/13 06:49:41;;;;;;;9.50;8.52;;;;;;;22.51;55.79;94366.88;4147487;28;20059;-68
2022/08/13 06:52:01;;;;;;;8.60;7.80;;;;;;;22.57;55.99;94360.59;4148827;28;20057;-68
2022/08/13 06:54:08;;;;;;;12.60;8.50;;;;;;;22.58;55.99;94367.53;4171314;28;20545;-70
2022/08/13 06:56:29;;;;;;;11.07;8.52;;;;;;;22.66;55.44;94358.31;4175375;28;20197;-69
2022/08/13 06:58:36;;;;;;;9.73;8.27;;;;;;;22.75;55.44;94359.53;4176162;28;20044;-69
2022/08/13 07:00:39;;;;;;;11.60;8.10;;;;;;;22.87;55.01;94364.81;4148796;28;20666;-70
2022/08/13 07:02:42;;;;;;;9.73;7.83;;;;;;;22.93;54.70;94355.00;4173977;28;20172;-67
2022/08/13 07:04:48;;;;;;;8.15;7.00;;;;;;;22.83;55.15;94358.31;4154587;28;20739;-69
2022/08/13 07:06:56;;;;;;;10.75;7.38;;;;;;;22.77;55.23;94364.63;4151550;28;20527;-67
2022/08/13 07:09:01;;;;;;;12.02;7.15;;;;;;;22.63;55.58;94361.50;4171365;28;20045;-69
2022/08/13 07:11:24;;;;;;;10.88;7.18;;;;;;;22.35;56.40;94362.31;4163892;28;20115;-67
2022/08/13 07:13:45;;;;;;;8.07;7.10;;;;;;;21.79;57.51;94376.22;4166061;28;20477;-67
2022/08/13 07:15:51;;;;;;;8.45;7.30;;;;;;;21.71;58.17;94367.78;4175846;28;20053;-69
2022/08/13 07:17:55;;;;;;;11.32;8.02;;;;;;;21.89;57.86;94373.75;4144834;28;20053;-67
2022/08/13 07:19:56;;;;;;;;;;;;;;;22.04;57.37;94373.22;4160617;28;20111;-67
2022/08/13 07:22:08;;;;;;;9.52;7.20;;;;;;;22.14;57.42;94374.50;4161795;28;19925;-70
2022/08/13 07:24:14;;;;;;;11.93;7.57;;;;;;;22.36;56.99;94371.97;4160011;28;20057;-68
2022/08/13 07:26:37;;;;;;;8.38;7.03;;;;;;;22.26;56.82;94368.06;4159729;28;20057;-69
2022/08/13 07:28:49;;;;;;;10.73;7.93;;;;;;;22.44;56.31;94372.38;4170536;28;20095;-68
2022/08/13 07:30:59;;;;;;;13.75;8.20;;;;;;;22.56;56.13;94374.97;4163040;28;20144;-69
2022/08/13 07:33:03;;;;;;;9.75;8.50;;;;;;;22.54;56.88;94376.28;4171840;28;20461;-69
2022/08/13 07:35:08;;;;;;;11.25;7.65;;;;;;;22.38;57.17;94383.22;4166663;28;20386;-67
2022/08/13 07:37:21;;;;;;;9.82;7.47;;;;;;;22.28;57.34;94376.66;4171892;28;20081;-68
2022/08/13 07:39:25;;;;;;;13.13;8.55;;;;;;;22.40;57.20;94379.25;4159764;28;20107;-69
2022/08/13 07:41:28;;;;;;;9.52;7.72;;;;;;;22.17;57.32;94374.78;4173530;28;20144;-70
2022/08/13 07:43:36;;;;;;;10.95;8.18;;;;;;;22.22;57.25;94382.06;4179007;28;20052;-69
2022/08/13 07:46:10;;;;;;;14.95;8.70;;;;;;;22.31;57.36;94366.56;4159802;28;20115;-72
2022/08/13 07:48:30;;;;;;;12.02;7.85;;;;;;;22.25;57.41;94373.66;4159348;28;20049;-69
2022/08/13 07:50:49;;;;;;;9.40;8.30;;;;;;;22.33;57.54;94370.59;4168817;28;20079;-68
2022/08/13 07:53:07;;;;;;;9.65;7.68;;;;;;;22.28;57.40;94367.81;4157772;28;20179;-69
2022/08/13 07:55:18;;;;;;;11.70;8.10;;;;;;;22.21;57.58;94367.94;4173527;28;20126;-66
2022/08/13 07:57:43;;;;;;;9.50;7.63;;;;;;;22.19;58.01;94364.69;4161037;28;20138;-70
2022/08/13 07:59:46;;;;;;;11.77;7.82;;;;;;;22.24;58.00;94366.66;4177489;28;20067;-70
2022/08/13 08:02:08;;;;;;;16.02;7.68;;;;;;;22.33;57.36;94373.25;4164221;28;20060;-68
2022/08/13 08:04:25;;;;;;;10.50;7.82;;;;;;;22.36;57.46;94367.44;4177638;28;20088;-68
2022/08/13 08:06:33;;;;;;;13.60;7.90;;;;;;;22.60;57.02;94369.97;4176796;28;20207;-68
2022/08/13 08:08:40;;;;;;;10.02;7.75;;;;;;;22.80;56.22;94364.97;4153728;28;20448;-69
2022/08/13 08:10:46;;;;;;;11.02;7.57;;;;;;;22.89;56.38;94366.16;4161386;28;20107;-68
2022/08/13 08:12:47;;;;;;;13.07;8.50;;;;;;;22.82;56.14;94370.03;4167426;28;20061;-68
2022/08/13 08:14:54;;;;;;;9.82;7.95;;;;;;;22.76;56.31;94360.34;4165401;28;20053;-68
2022/08/13 08:17:01;;;;;;;9.32;8.15;;;;;;;22.64;56.27;94361.22;4178619;28;20064;-68
2022/08/13 08:19:22;;;;;;;12.00;8.25;;;;;;;22.67;56.18;94351.91;4175399;28;20905;-68
2022/08/13 08:21:45;;;;;;;9.70;7.60;;;;;;;22.79;56.21;94366.00;4168052;28;20422;-68
2022/08/13 08:24:07;;;;;;;13.10;8.27;;;;;;;22.79;56.21;94367.88;4178752;28;20132;-68
2022/08/13 08:26:35;;;;;;;10.95;8.43;;;;;;;22.85;56.31;94359.69;4163134;28;20052;-67
2022/08/13 08:28:38;;;;;;;11.07;8.93;;;;;;;22.79;56.11;94366.00;4169005;28;20488;-68
2022/08/13 08:30:43;;;;;;;10.13;8.02;;;;;;;22.86;56.31;94361.31;4175472;28;20549;-69
2022/08/13 08:32:56;;;;;;;11.05;8.10;;;;;;;23.05;55.76;94361.09;4161765;28;20405;-69
2022/08/13 08:35:04;;;;;;;9.32;7.97;;;;;;;23.21;55.48;94348.75;4178413;28;20428;-68
2022/08/13 08:42:35;;;;;;;16.27;9.20;;;;;;;23.42;54.68;94357.84;4160472;28;20094;-71
2022/08/13 08:44:23;;;;;;;10.40;8.30;;;;;;;23.01;56.34;94357.28;4156179;28;20141;-68
2022/08/13 08:46:34;;;;;;;15.50;8.65;;;;;;;23.03;55.68;94357.84;4165186;28;20054;-68
2022/08/13 08:48:38;;;;;;;12.95;9.50;;;;;;;23.08;56.16;94353.41;4145668;28;20528;-69
2022/08/13 08:50:41;;;;;;;10.05;8.32;;;;;;;23.20;55.99;94347.94;4152012;28;20137;-69
2022/08/13 08:55:21;;;;;;;12.82;9.73;;;;;;;23.18;55.49;94350.03;4170971;28;20680;-68
2022/08/13 08:57:34;;;;;;;11.98;8.52;;;;;;;23.18;55.57;94355.41;4178492;28;20049;-69
2022/08/13 08:59:35;;;;;;;12.70;8.10;;;;;;;23.00;56.14;94348.47;4160341;28;20080;-68
2022/08/13 09:01:55;;;;;;;8.90;8.00;;;;;;;22.62;57.19;94346.50;4177864;28;20534;-69
2022/08/13 09:04:05;;;;;;;19.27;14.95;;;;;;;22.81;57.36;94355.88;4161298;28;20042;-69
2022/08/13 09:06:08;;;;;;;10.70;8.43;;;;;;;22.92;56.80;94350.72;4177358;28;20063;-67
2022/08/13 09:08:18;;;;;;;11.40;8.95;;;;;;;22.39;58.10;94358.13;4177221;28;20045;-71
2022/08/13 09:10:22;;;;;;;10.10;9.07;;;;;;;22.25;58.86;94353.09;4164691;28;20061;-70
2022/08/13 09:12:32;;;;;;;11.48;9.45;;;;;;;22.38;58.64;94351.19;4161063;28;20068;-69
2022/08/13 09:14:34;;;;;;;10.25;9.15;;;;;;;22.56;58.67;94350.16;4165666;28;20550;-68
2022/08/13 09:16:39;;;;;;;9.63;8.63;;;;;;;22.70;57.83;94354.91;4175455;28;20472;-70
2022/08/13 09:18:45;;;;;;;11.70;8.90;;;;;;;22.83;58.08;94348.44;4169301;28;20045;-69
2022/08/13 09:20:53;;;;;;;12.30;9.65;;;;;;;22.96;59.06;94354.53;4167016;28;20210;-71
2022/08/13 09:23:12;;;;;;;17.17;10.00;;;;;;;23.06;60.07;94357.38;4175402;28;20080;-69
2022/08/13 09:25:18;;;;;;;14.80;9.25;;;;;;;23.11;59.81;94360.09;4134463;28;20054;-67
2022/08/13 09:27:20;;;;;;;16.00;9.70;;;;;;;23.14;61.56;94364.94;4159547;28;20145;-69
2022/08/13 09:29:23;;;;;;;12.68;10.27;;;;;;;23.15;61.04;94366.59;4176287;28;20049;-68
2022/08/13 09:31:26;;;;;;;18.00;10.20;;;;;;;23.18;61.29;94359.94;4176899;28;20061;-69
2022/08/13 09:33:48;;;;;;;12.35;9.63;;;;;;;23.20;60.40;94363.16;4177391;28;20478;-67
2022/08/13 09:36:01;;;;;;;13.40;9.35;;;;;;;23.19;59.76;94354.34;4166040;28;20223;-69
2022/08/13 09:38:07;;;;;;;10.68;9.07;;;;;;;23.19;60.71;94348.19;4165989;28;20041;-69
2022/08/13 09:40:13;;;;;;;14.75;10.10;;;;;;;23.22;61.72;94345.84;4176501;28;20448;-70
2022/08/13 09:42:24;;;;;;;11.43;9.75;;;;;;;23.27;61.94;94347.75;4176207;28;20064;-71
2022/08/13 09:44:30;;;;;;;15.75;11.80;;;;;;;23.21;61.51;94349.56;4177610;28;20084;-69
2022/08/13 09:46:37;;;;;;;21.25;16.42;;;;;;;23.10;62.08;94353.97;4159401;28;20555;-69
2022/08/13 09:48:40;;;;;;;;;;;;;;;22.97;63.12;94353.44;4165573;28;20357;-70
2022/08/13 09:50:47;;;;;;;13.27;10.85;;;;;;;22.98;63.61;94352.41;4177128;28;20032;-69
2022/08/13 09:52:57;;;;;;;14.55;10.07;;;;;;;23.06;62.54;94354.69;4176391;28;20551;-71
2022/08/13 09:54:59;;;;;;;12.43;9.57;;;;;;;23.13;62.36;94352.66;4174261;28;20049;-69
2022/08/13 09:57:01;;;;;;;13.90;10.32;;;;;;;23.21;62.05;94343.41;4173279;28;20091;-70
2022/08/13 09:59:10;;;;;;;12.73;10.98;;;;;;;23.29;63.40;94348.31;4169480;28;20050;-68
2022/08/13 10:01:33;;;;;;;13.52;10.75;;;;;;;23.36;61.73;94345.47;4158949;28;20053;-71
2022/08/13 10:03:55;;;;;;;12.50;10.73;;;;;;;23.40;61.58;94354.63;4171072;28;20408;-67
2022/08/13 10:05:59;;;;;;;24.48;17.48;;;;;;;23.40;62.80;94349.28;4176218;28;20342;-68
2022/08/13 10:08:03;;;;;;;26.75;20.25;;;;;;;23.41;63.12;94354.38;4174065;28;20051;-68
2022/08/13 10:10:05;;;;;;;;;;;;;;;23.42;63.23;94342.63;4157926;28;20056;-69
2022/08/13 10:12:27;;;;;;;14.25;11.77;;;;;;;23.38;62.46;94344.19;4176863;28;19928;-67
2022/08/13 10:14:30;;;;;;;13.70;11.68;;;;;;;23.40;62.54;94343.91;4176869;28;20604;-68
2022/08/13 10:16:34;;;;;;;13.82;10.90;;;;;;;23.36;61.82;94334.78;4175316;28;20105;-68
2022/08/13 10:18:36;;;;;;;16.40;11.75;;;;;;;23.36;62.80;94345.47;4176138;28;20384;-67
2022/08/13 10:20:43;;;;;;;14.80;11.63;;;;;;;23.35;63.25;94343.88;4175094;28;20467;-69
2022/08/13 10:22:45;;;;;;;16.98;11.63;;;;;;;23.35;63.96;94344.66;4175356;28;20053;-69
2022/08/13 10:24:47;;;;;;;16.73;11.65;;;;;;;23.35;65.19;94339.31;4166635;28;20090;-69
2022/08/13 10:26:50;;;;;;;14.65;13.07;;;;;;;23.34;65.88;94340.41;4176033;28;20048;-69